createdAt,value
2023-04-18T00:00:28.881Z,96407.34
2023-04-18T00:02:56.200Z,96400.59
2023-04-18T00:05:23.398Z,96401.28
2023-04-18T00:07:51.426Z,96401.28
2023-04-18T00:10:18.419Z,96398.69
2023-04-18T00:12:45.216Z,96403.94
2023-04-18T00:15:12.899Z,96399.47
2023-04-18T00:17:40.066Z,96397.88
2023-04-18T00:20:10.684Z,96394.28
2023-04-18T00:22:42.668Z,96394.47
2023-04-18T00:25:10.664Z,96398.47
2023-04-18T00:27:39.192Z,96396.06
2023-04-18T00:30:07.274Z,96390.66
2023-04-18T00:32:37.900Z,96394.22
2023-04-18T00:35:05.284Z,96395.97
2023-04-18T00:37:32.148Z,96393.13
2023-04-18T00:39:59.025Z,96392.91
2023-04-18T00:42:27.888Z,96388.25
2023-04-18T00:44:55.166Z,96387.00
2023-04-18T00:47:21.995Z,96388.44
2023-04-18T00:49:49.235Z,96382.81
2023-04-18T00:52:17.163Z,96399.88
2023-04-18T00:54:44.974Z,96403.78
2023-04-18T00:57:13.648Z,96392.81
2023-04-18T00:59:41.126Z,96397.63
2023-04-18T01:02:07.992Z,96396.81
2023-04-18T01:04:34.997Z,96401.19
2023-04-18T01:07:02.307Z,96396.16
2023-04-18T01:09:29.440Z,96397.63
2023-04-18T01:11:56.262Z,96394.91
2023-04-18T01:14:23.396Z,96398.31
2023-04-18T01:16:50.050Z,96395.41
2023-04-18T01:19:18.921Z,96395.09
2023-04-18T01:21:45.750Z,96389.28
2023-04-18T01:24:17.038Z,96390.44
2023-04-18T01:26:45.434Z,96381.88
2023-04-18T01:29:12.366Z,96378.31
2023-04-18T01:31:40.374Z,96378.31
2023-04-18T01:34:08.014Z,96379.75
2023-04-18T01:36:37.719Z,96382.88
2023-04-18T01:39:04.692Z,96377.00
2023-04-18T01:41:33.183Z,96380.22
2023-04-18T01:44:00.357Z,96377.66
2023-04-18T01:46:27.886Z,96387.03
2023-04-18T01:48:55.346Z,96382.69
2023-04-18T01:51:22.383Z,96382.69
2023-04-18T01:53:49.640Z,96378.66
2023-04-18T01:56:16.532Z,96380.97
2023-04-18T01:58:43.794Z,96388.84
2023-04-18T02:01:12.553Z,96381.75
2023-04-18T02:03:40.123Z,96385.28
2023-04-18T02:06:07.334Z,96371.88
2023-04-18T02:08:36.142Z,96375.59
2023-04-18T02:11:05.203Z,96375.59
2023-04-18T02:13:32.120Z,96375.75
2023-04-18T02:15:58.838Z,96381.22
2023-04-18T02:18:26.601Z,96370.94
2023-04-18T02:20:53.340Z,96378.81
2023-04-18T02:23:21.793Z,96377.88
2023-04-18T02:25:48.522Z,96379.97
2023-04-18T02:28:17.331Z,96380.97
2023-04-18T02:30:44.043Z,96379.34
2023-04-18T02:33:10.993Z,96384.16
2023-04-18T02:35:38.683Z,96379.16
2023-04-18T02:38:05.331Z,96381.06
2023-04-18T02:40:32.008Z,96382.22
2023-04-18T02:42:59.415Z,96382.81
2023-04-18T02:45:26.186Z,96388.16
2023-04-18T02:47:56.054Z,96392.81
2023-04-18T02:50:24.834Z,96388.03
2023-04-18T02:52:53.077Z,96389.63
2023-04-18T02:55:22.777Z,96392.56
2023-04-18T02:57:49.555Z,96390.28
2023-04-18T03:00:38.952Z,96384.16
2023-04-18T03:03:06.008Z,96386.88
2023-04-18T03:05:40.455Z,96385.75
2023-04-18T03:08:07.581Z,96391.56
2023-04-18T03:10:36.880Z,96385.38
2023-04-18T03:13:04.522Z,96388.28
2023-04-18T03:15:31.405Z,96385.44
2023-04-18T03:17:58.680Z,96383.81
2023-04-18T03:20:28.908Z,96382.56
2023-04-18T03:22:55.695Z,96385.28
2023-04-18T03:25:25.254Z,96384.81
2023-04-18T03:27:53.403Z,96379.00
2023-04-18T03:30:22.266Z,96379.34
2023-04-18T03:32:56.122Z,96381.78
2023-04-18T03:35:23.109Z,96375.19
2023-04-18T03:37:50.410Z,96378.06
2023-04-18T03:40:24.224Z,96385.47
2023-04-18T03:42:53.564Z,96382.28
2023-04-18T03:45:20.618Z,96383.72
2023-04-18T03:47:47.608Z,96380.19
2023-04-18T03:50:15.326Z,96385.38
2023-04-18T03:52:43.604Z,96390.19
2023-04-18T03:55:11.478Z,96386.63
2023-04-18T03:57:38.504Z,96395.00
2023-04-18T04:00:10.659Z,96391.13
2023-04-18T04:02:43.190Z,96384.47
2023-04-18T04:05:16.472Z,96386.94
2023-04-18T04:07:43.571Z,96386.94
2023-04-18T04:10:11.448Z,96385.97
2023-04-18T04:12:38.136Z,96390.50
2023-04-18T04:15:06.602Z,96390.34
2023-04-18T04:17:34.282Z,96388.44
2023-04-18T04:20:01.801Z,96396.78
2023-04-18T04:22:30.119Z,96395.97
2023-04-18T04:24:57.848Z,96393.25
2023-04-18T04:27:30.683Z,96400.63
2023-04-18T04:29:57.586Z,96407.06
2023-04-18T04:32:25.301Z,96406.25
2023-04-18T04:34:53.694Z,96409.00
2023-04-18T04:37:20.886Z,96400.94
2023-04-18T04:40:15.698Z,96406.09
2023-04-18T04:42:49.143Z,96400.63
2023-04-18T04:45:23.269Z,96413.47
2023-04-18T04:47:50.007Z,96414.63
2023-04-18T04:50:18.353Z,96411.06
2023-04-18T04:52:45.161Z,96415.09
2023-04-18T04:55:11.835Z,96415.53
2023-04-18T04:57:40.419Z,96414.28
2023-04-18T05:00:24.037Z,96418.28
2023-04-18T05:02:55.827Z,96413.81
2023-04-18T05:05:23.840Z,96420.56
2023-04-18T05:07:50.669Z,96416.22
2023-04-18T05:10:17.629Z,96415.44
2023-04-18T05:12:44.494Z,96416.69
2023-04-18T05:15:11.375Z,96415.09
2023-04-18T05:17:38.185Z,96415.53
2023-04-18T05:20:05.998Z,96415.38
2023-04-18T05:22:32.722Z,96424.56
2023-04-18T05:24:59.408Z,96417.63
2023-04-18T05:27:26.410Z,96420.34
2023-04-18T05:29:53.241Z,96424.84
2023-04-18T05:32:20.382Z,96426.13
2023-04-18T05:34:47.898Z,96430.47
2023-04-18T05:37:14.917Z,96429.53
2023-04-18T05:39:41.877Z,96426.63
2023-04-18T05:42:08.818Z,96423.44
2023-04-18T05:44:35.779Z,96429.53
2023-04-18T05:47:05.730Z,96426.13
2023-04-18T05:49:32.872Z,96427.13
2023-04-18T05:51:59.807Z,96431.13
2023-04-18T05:54:26.574Z,96429.19
2023-04-18T05:56:54.304Z,96430.63
2023-04-18T05:59:21.311Z,96431.59
2023-04-18T06:01:49.406Z,96433.38
2023-04-18T06:04:16.686Z,96431.78
2023-04-18T06:06:43.873Z,96431.13
2023-04-18T06:09:10.644Z,96429.66
2023-04-18T06:11:37.313Z,96429.81
2023-04-18T06:14:03.946Z,96434.16
2023-04-18T06:16:30.639Z,96435.78
2023-04-18T06:19:00.897Z,96437.72
2023-04-18T06:21:28.417Z,96439.81
2023-04-18T06:23:55.103Z,96438.06
2023-04-18T06:26:21.839Z,96439.47
2023-04-18T06:28:48.503Z,96439.31
2023-04-18T06:31:15.305Z,96446.22
2023-04-18T06:33:42.097Z,96446.72
2023-04-18T06:36:09.200Z,96441.72
2023-04-18T06:38:35.951Z,96439.41
2023-04-18T06:41:02.616Z,96441.97
2023-04-18T06:43:29.290Z,96443.72
2023-04-18T06:45:56.778Z,96450.94
2023-04-18T06:48:23.815Z,96450.16
2023-04-18T06:50:50.589Z,96450.16
2023-04-18T06:53:17.383Z,96455.16
2023-04-18T06:55:44.140Z,96449.16
2023-04-18T06:58:13.662Z,96441.69
2023-04-18T07:00:40.383Z,96451.50
2023-04-18T07:03:11.450Z,96450.25
2023-04-18T07:05:39.350Z,96455.84
2023-04-18T07:08:06.290Z,96457.47
2023-04-18T07:10:33.007Z,96454.06
2023-04-18T07:12:59.827Z,96450.19
2023-04-18T07:15:26.564Z,96454.97
2023-04-18T07:17:53.231Z,96449.50
2023-04-18T07:20:19.982Z,96453.38
2023-04-18T07:22:48.063Z,96449.81
2023-04-18T07:25:14.951Z,96456.88
2023-04-18T07:27:41.743Z,96460.09
2023-04-18T07:30:09.137Z,96450.88
2023-04-18T07:32:35.849Z,96455.69
2023-04-18T07:35:04.260Z,96457.00
2023-04-18T07:37:31.418Z,96466.78
2023-04-18T07:39:58.498Z,96455.09
2023-04-18T07:42:25.282Z,96452.50
2023-04-18T07:44:57.684Z,96459.56
2023-04-18T07:47:26.902Z,96461.03
2023-04-18T07:49:55.152Z,96467.97
2023-04-18T07:52:21.786Z,96466.63
2023-04-18T07:54:48.464Z,96468.38
2023-04-18T07:57:15.346Z,96466.63
2023-04-18T07:59:42.064Z,96468.88
2023-04-18T08:02:08.900Z,96473.59
2023-04-18T08:04:35.915Z,96477.94
2023-04-18T08:07:02.659Z,96473.50
2023-04-18T08:09:29.408Z,96478.50
2023-04-18T08:11:57.907Z,96479.31
2023-04-18T08:14:24.486Z,96484.94
2023-04-18T08:16:51.197Z,96478.97
2023-04-18T08:19:17.901Z,96479.59
2023-04-18T08:21:44.687Z,96482.19
2023-04-18T08:24:11.364Z,96474.88
2023-04-18T08:26:38.020Z,96481.03
2023-04-18T08:29:04.735Z,96477.28
2023-04-18T08:31:31.834Z,96485.75
2023-04-18T08:33:58.568Z,96480.66
2023-04-18T08:36:25.994Z,96480.53
2023-04-18T08:38:52.808Z,96476.28
2023-04-18T08:41:22.732Z,96486.19
2023-04-18T08:43:49.490Z,96489.94
2023-04-18T08:46:17.134Z,96499.31
2023-04-18T08:48:44.030Z,96502.59
2023-04-18T08:51:11.387Z,96504.53
2023-04-18T08:53:39.285Z,96505.41
2023-04-18T08:56:10.568Z,96506.63
2023-04-18T08:58:37.618Z,96515.69
2023-04-18T09:01:04.462Z,96510.56
2023-04-18T09:03:41.680Z,96510.22
2023-04-18T09:06:14.368Z,96514.22
2023-04-18T09:08:43.419Z,96515.22
2023-04-18T09:11:22.218Z,96515.66
2023-04-18T09:13:50.317Z,96513.41
2023-04-18T09:16:20.848Z,96518.56
2023-04-18T09:19:13.728Z,96514.41
2023-04-18T09:21:42.807Z,96511.41
2023-04-18T09:24:22.473Z,96515.28
2023-04-18T09:26:50.147Z,96518.38
2023-04-18T09:29:18.562Z,96515.94
2023-04-18T09:31:57.407Z,96516.78
2023-04-18T09:34:25.115Z,96514.28
2023-04-18T09:37:17.933Z,96509.13
2023-04-18T09:39:45.182Z,96508.22
2023-04-18T09:42:12.596Z,96505.75
2023-04-18T09:45:06.276Z,96502.53
2023-04-18T09:47:37.638Z,96509.59
2023-04-18T09:50:06.055Z,96515.63
2023-04-18T09:52:35.964Z,96513.69
2023-04-18T09:55:04.975Z,96504.75
2023-04-18T09:57:33.072Z,96507.50
2023-04-18T10:00:29.284Z,96515.09
2023-04-18T10:03:01.205Z,96513.56
2023-04-18T10:05:32.430Z,96515.09
2023-04-18T10:07:59.499Z,96511.19
2023-04-18T10:10:26.157Z,96510.16
2023-04-18T10:12:55.144Z,96508.47
2023-04-18T10:15:24.833Z,96514.59
2023-04-18T10:18:04.179Z,96513.53
2023-04-18T10:20:33.694Z,96519.81
2023-04-18T10:23:00.846Z,96510.22
2023-04-18T10:25:33.914Z,96515.81
2023-04-18T10:28:08.987Z,96513.94
2023-04-18T10:30:40.107Z,96509.41
2023-04-18T10:33:30.935Z,96508.56
2023-04-18T10:36:01.208Z,96513.03
2023-04-18T10:38:28.638Z,96510.09
2023-04-18T10:41:24.273Z,96504.00
2023-04-18T10:44:08.050Z,96509.28
2023-04-18T10:47:04.008Z,96499.97
2023-04-18T10:49:33.916Z,96504.94
2023-04-18T10:52:02.009Z,96512.97
2023-04-18T10:54:51.300Z,96505.44
2023-04-18T10:57:18.079Z,96506.38
2023-04-18T10:59:49.397Z,96500.41
2023-04-18T11:02:28.874Z,96501.69
2023-04-18T11:04:57.664Z,96501.59
2023-04-18T11:07:45.076Z,96503.84
2023-04-18T11:10:12.665Z,96503.19
2023-04-18T11:12:40.586Z,96491.28
2023-04-18T11:15:20.124Z,96497.00
2023-04-18T11:17:54.657Z,96501.94
2023-04-18T11:20:21.335Z,96493.59
2023-04-18T11:22:51.606Z,96500.94
2023-04-18T11:25:19.811Z,96492.97
2023-04-18T11:27:48.875Z,96494.09
2023-04-18T11:30:16.184Z,96501.88
2023-04-18T11:32:43.082Z,96495.47
2023-04-18T11:35:11.709Z,96490.31
2023-04-18T11:37:39.391Z,96498.47
2023-04-18T11:40:08.761Z,96499.50
2023-04-18T11:42:37.491Z,96494.56
2023-04-18T11:45:08.752Z,96496.06
2023-04-18T11:47:35.537Z,96501.41
2023-04-18T11:50:07.230Z,96499.56
2023-04-18T11:52:35.143Z,96506.66
2023-04-18T11:55:13.107Z,96504.72
2023-04-18T11:57:40.951Z,96504.63
2023-04-18T12:00:09.361Z,96493.88
2023-04-18T12:02:39.356Z,96498.38
2023-04-18T12:05:06.983Z,96497.75
2023-04-18T12:07:36.300Z,96499.03
2023-04-18T12:10:06.144Z,96493.91
2023-04-18T12:12:33.205Z,96497.66
2023-04-18T12:15:08.852Z,96502.22
2023-04-18T12:17:37.051Z,96502.78
2023-04-18T12:20:05.993Z,96496.53
2023-04-18T12:22:44.983Z,96496.66
2023-04-18T12:25:27.063Z,96496.97
2023-04-18T12:28:13.823Z,96490.91
2023-04-18T12:30:40.761Z,96495.84
2023-04-18T12:33:09.211Z,96494.91
2023-04-18T12:35:36.138Z,96499.16
2023-04-18T12:38:03.375Z,96499.38
2023-04-18T12:40:30.306Z,96494.13
2023-04-18T12:42:57.091Z,96503.25
2023-04-18T12:45:24.103Z,96498.69
2023-04-18T12:47:51.860Z,96509.19
2023-04-18T12:50:21.350Z,96496.28
2023-04-18T12:52:48.350Z,96507.25
2023-04-18T12:55:15.804Z,96506.44
2023-04-18T12:57:43.329Z,96503.25
2023-04-18T13:00:12.244Z,96509.06
2023-04-18T13:02:41.901Z,96504.34
2023-04-18T13:05:10.243Z,96508.59
2023-04-18T13:07:43.294Z,96505.72
2023-04-18T13:10:11.892Z,96504.34
2023-04-18T13:12:39.854Z,96509.38
2023-04-18T13:15:07.722Z,96510.41
2023-04-18T13:17:36.820Z,96505.75
2023-04-18T13:20:06.426Z,96509.19
2023-04-18T13:22:33.904Z,96505.53
2023-04-18T13:25:00.586Z,96501.00
2023-04-18T13:27:27.469Z,96499.63
2023-04-18T13:29:55.241Z,96505.09
2023-04-18T13:32:22.191Z,96504.41
2023-04-18T13:34:49.272Z,96504.19
2023-04-18T13:37:16.329Z,96499.81
2023-04-18T13:39:44.294Z,96499.63
2023-04-18T13:42:11.031Z,96502.13
2023-04-18T13:44:37.988Z,96495.28
2023-04-18T13:47:06.031Z,96500.75
2023-04-18T13:49:34.299Z,96501.53
2023-04-18T13:52:01.163Z,96507.63
2023-04-18T13:54:29.603Z,96500.84
2023-04-18T13:56:58.410Z,96507.38
2023-04-18T13:59:25.878Z,96504.53
2023-04-18T14:01:54.473Z,96509.22
2023-04-18T14:04:22.709Z,96500.53
2023-04-18T14:06:50.510Z,96498.94
2023-04-18T14:09:17.992Z,96503.03
2023-04-18T14:11:45.276Z,96499.94
2023-04-18T14:14:12.006Z,96505.91
2023-04-18T14:16:38.728Z,96504.63
2023-04-18T14:19:05.562Z,96509.56
2023-04-18T14:21:32.197Z,96514.38
2023-04-18T14:23:58.979Z,96503.03
2023-04-18T14:26:25.917Z,96503.84
2023-04-18T14:28:52.623Z,96503.72
2023-04-18T14:31:19.433Z,96515.06
2023-04-18T14:33:46.520Z,96512.41
2023-04-18T14:36:15.338Z,96515.38
2023-04-18T14:38:42.335Z,96505.06
2023-04-18T14:41:09.142Z,96509.31
2023-04-18T14:43:35.899Z,96515.13
2023-04-18T14:46:02.584Z,96510.78
2023-04-18T14:48:30.226Z,96513.31
2023-04-18T14:51:00.453Z,96507.56
2023-04-18T14:53:27.167Z,96514.47
2023-04-18T14:55:54.650Z,96510.47
2023-04-18T14:58:21.827Z,96505.78
2023-04-18T15:00:49.384Z,96515.84
2023-04-18T15:03:19.362Z,96519.84
2023-04-18T15:05:49.181Z,96516.06
2023-04-18T15:08:16.288Z,96516.06
2023-04-18T15:10:43.089Z,96513.09
2023-04-18T15:13:11.051Z,96520.19
2023-04-18T15:15:39.717Z,96522.94
2023-04-18T15:18:08.045Z,96518.59
2023-04-18T15:20:37.068Z,96523.63
2023-04-18T15:23:04.299Z,96524.19
2023-04-18T15:25:31.145Z,96529.47
2023-04-18T15:27:58.560Z,96528.31
2023-04-18T15:30:25.608Z,96526.38
2023-04-18T15:32:53.958Z,96527.19
2023-04-18T15:35:21.053Z,96535.44
2023-04-18T15:37:49.332Z,96529.47
2023-04-18T15:40:16.530Z,96534.72
2023-04-18T15:42:43.832Z,96534.13
2023-04-18T15:45:11.826Z,96542.50
2023-04-18T15:47:39.378Z,96536.03
2023-04-18T15:50:07.060Z,96542.31
2023-04-18T15:52:33.930Z,96540.25
2023-04-18T15:55:00.820Z,96541.09
2023-04-18T15:57:29.728Z,96548.50
2023-04-18T15:59:57.009Z,96550.91
2023-04-18T16:02:23.754Z,96552.94
2023-04-18T16:04:50.584Z,96551.25
2023-04-18T16:07:17.319Z,96551.34
2023-04-18T16:09:44.262Z,96556.69
2023-04-18T16:12:11.253Z,96556.34
2023-04-18T16:14:38.131Z,96560.22
2023-04-18T16:17:04.804Z,96553.13
2023-04-18T16:19:33.328Z,96552.34
2023-04-18T16:22:01.140Z,96557.69
2023-04-18T16:24:30.270Z,96560.56
2023-04-18T16:26:57.405Z,96554.75
2023-04-18T16:29:24.240Z,96554.75
2023-04-18T16:31:51.863Z,96556.41
2023-04-18T16:34:18.730Z,96553.66
2023-04-18T16:36:45.653Z,96552.50
2023-04-18T16:39:12.867Z,96559.69
2023-04-18T16:41:39.684Z,96560.78
2023-04-18T16:44:06.844Z,96559.31
2023-04-18T16:46:33.699Z,96552.50
2023-04-18T16:49:02.047Z,96567.47
2023-04-18T16:51:29.524Z,96557.53
2023-04-18T16:53:56.455Z,96561.91
2023-04-18T16:56:23.342Z,96562.00
2023-04-18T16:58:49.990Z,96561.00
2023-04-18T17:01:16.909Z,96559.41
2023-04-18T17:03:44.174Z,96564.88
2023-04-18T17:06:10.990Z,96563.75
2023-04-18T17:08:37.880Z,96573.59
2023-04-18T17:11:04.836Z,96572.78
2023-04-18T17:13:31.721Z,96574.94
2023-04-18T17:15:58.552Z,96567.16
2023-04-18T17:18:25.394Z,96569.56
2023-04-18T17:20:52.390Z,96571.06
2023-04-18T17:23:19.208Z,96581.50
2023-04-18T17:25:46.293Z,96572.66
2023-04-18T17:28:14.052Z,96574.13
2023-04-18T17:30:44.117Z,96585.44
2023-04-18T17:33:11.056Z,96575.16
2023-04-18T17:35:41.337Z,96578.38
2023-04-18T17:38:10.564Z,96574.34
2023-04-18T17:40:37.456Z,96583.84
2023-04-18T17:43:04.227Z,96580.53
2023-04-18T17:45:31.033Z,96582.53
2023-04-18T17:47:59.431Z,96589.06
2023-04-18T17:50:26.112Z,96583.19
2023-04-18T17:52:53.317Z,96595.94
2023-04-18T17:55:20.200Z,96595.16
2023-04-18T17:57:47.028Z,96595.75
2023-04-18T18:00:15.670Z,96590.69
2023-04-18T18:02:43.096Z,96598.94
2023-04-18T18:05:13.691Z,96597.47
2023-04-18T18:07:43.338Z,96601.81
2023-04-18T18:10:11.390Z,96603.75
2023-04-18T18:12:38.243Z,96608.78
2023-04-18T18:15:05.609Z,96611.19
2023-04-18T18:17:32.513Z,96609.69
2023-04-18T18:19:59.455Z,96609.69
2023-04-18T18:22:26.344Z,96611.63
2023-04-18T18:24:53.183Z,96613.59
2023-04-18T18:27:22.998Z,96618.06
2023-04-18T18:29:50.414Z,96623.06
2023-04-18T18:32:17.217Z,96621.34
2023-04-18T18:34:44.127Z,96625.22
2023-04-18T18:37:10.860Z,96629.22
2023-04-18T18:39:37.771Z,96631.63
2023-04-18T18:42:04.599Z,96628.41
2023-04-18T18:44:31.633Z,96633.91
2023-04-18T18:46:59.673Z,96633.13
2023-04-18T18:49:26.697Z,96638.13
2023-04-18T18:51:53.633Z,96635.22
2023-04-18T18:54:20.360Z,96637.63
2023-04-18T18:56:47.094Z,96632.81
2023-04-18T18:59:14.186Z,96628.81
2023-04-18T19:01:41.222Z,96637.63
2023-04-18T19:04:08.102Z,96635.91
2023-04-18T19:06:35.329Z,96633.63
2023-04-18T19:09:02.096Z,96635.75
2023-04-18T19:11:29.427Z,96626.75
2023-04-18T19:13:56.220Z,96626.09
2023-04-18T19:16:23.143Z,96632.41
2023-04-18T19:18:50.663Z,96630.16
2023-04-18T19:21:17.591Z,96635.81
2023-04-18T19:23:44.274Z,96629.72
2023-04-18T19:26:10.903Z,96632.00
2023-04-18T19:28:37.601Z,96634.22
2023-04-18T19:31:04.484Z,96636.97
2023-04-18T19:33:31.208Z,96640.16
2023-04-18T19:35:58.381Z,96637.91
2023-04-18T19:38:25.131Z,96642.56
2023-04-18T19:40:51.841Z,96646.44
2023-04-18T19:43:18.530Z,96642.56
2023-04-18T19:45:45.302Z,96644.53
2023-04-18T19:48:12.107Z,96643.22
2023-04-18T19:50:41.033Z,96639.22
2023-04-18T19:53:08.260Z,96643.06
2023-04-18T19:55:35.041Z,96646.31
2023-04-18T19:58:01.898Z,96638.56
2023-04-18T20:00:29.509Z,96637.75
2023-04-18T20:02:58.517Z,96644.72
2023-04-18T20:05:25.481Z,96636.81
2023-04-18T20:07:52.352Z,96636.00
2023-04-18T20:10:21.953Z,96635.00
2023-04-18T20:13:00.755Z,96639.22
2023-04-18T20:15:30.557Z,96637.75
2023-04-18T20:17:57.558Z,96637.59
2023-04-18T20:20:24.289Z,96636.81
2023-04-18T20:22:51.039Z,96634.06
2023-04-18T20:25:17.926Z,96635.19
2023-04-18T20:27:44.853Z,96631.66
2023-04-18T20:30:11.865Z,96629.25
2023-04-18T20:32:38.624Z,96632.78
2023-04-18T20:35:06.017Z,96634.41
2023-04-18T20:37:36.810Z,96634.06
2023-04-18T20:40:08.024Z,96629.53
2023-04-18T20:42:34.708Z,96628.59
2023-04-18T20:45:03.274Z,96634.41
2023-04-18T20:47:29.940Z,96629.59
2023-04-18T20:49:57.240Z,96638.16
2023-04-18T20:52:24.154Z,96638.16
2023-04-18T20:54:50.959Z,96630.72
2023-04-18T20:57:19.302Z,96632.78
2023-04-18T20:59:45.994Z,96631.19
2023-04-18T21:02:12.765Z,96635.06
2023-04-18T21:04:39.624Z,96626.38
2023-04-18T21:07:06.306Z,96630.25
2023-04-18T21:09:36.480Z,96633.44
2023-04-18T21:12:04.069Z,96628.78
2023-04-18T21:14:30.921Z,96624.78
2023-04-18T21:16:58.162Z,96619.97
2023-04-18T21:19:25.002Z,96623.03
2023-04-18T21:21:51.787Z,96626.88
2023-04-18T21:24:18.515Z,96631.28
2023-04-18T21:26:45.428Z,96625.13
2023-04-18T21:29:12.086Z,96628.19
2023-04-18T21:31:38.872Z,96632.03
2023-04-18T21:34:05.617Z,96633.84
2023-04-18T21:36:32.729Z,96633.19
2023-04-18T21:39:01.155Z,96631.59
2023-04-18T21:41:28.040Z,96625.44
2023-04-18T21:43:54.748Z,96626.75
2023-04-18T21:46:21.625Z,96629.50
2023-04-18T21:48:48.633Z,96632.25
2023-04-18T21:51:16.325Z,96632.25
2023-04-18T21:53:43.314Z,96628.38
2023-04-18T21:56:10.879Z,96628.38
2023-04-18T21:58:38.021Z,96619.66
2023-04-18T22:01:04.924Z,96615.81
2023-04-18T22:03:34.117Z,96619.00
2023-04-18T22:06:02.119Z,96620.63
2023-04-18T22:08:29.763Z,96612.19
2023-04-18T22:10:59.000Z,96612.41
2023-04-18T22:13:32.972Z,96623.97
2023-04-18T22:16:03.636Z,96611.59
2023-04-18T22:18:33.808Z,96618.00
2023-04-18T22:21:03.891Z,96617.91
2023-04-18T22:23:31.197Z,96616.00
2023-04-18T22:25:57.872Z,96616.91
2023-04-18T22:28:24.647Z,96618.84
2023-04-18T22:30:51.334Z,96610.31
2023-04-18T22:33:18.295Z,96610.63
2023-04-18T22:35:47.116Z,96612.72
2023-04-18T22:38:13.922Z,96613.06
2023-04-18T22:40:40.632Z,96604.78
2023-04-18T22:43:07.612Z,96608.03
2023-04-18T22:45:34.697Z,96606.44
2023-04-18T22:48:01.437Z,96613.06
2023-04-18T22:50:28.185Z,96616.25
2023-04-18T22:52:54.825Z,96611.91
2023-04-18T22:55:21.748Z,96603.22
2023-04-18T22:57:48.411Z,96603.78
2023-04-18T23:00:16.018Z,96602.41
2023-04-18T23:02:43.640Z,96604.69
2023-04-18T23:05:11.662Z,96597.75
2023-04-18T23:07:38.322Z,96602.84
2023-04-18T23:10:08.753Z,96591.19
2023-04-18T23:12:35.565Z,96597.66
2023-04-18T23:15:02.307Z,96595.91
2023-04-18T23:38:28.945Z,96580.81
2023-04-18T23:40:55.697Z,96576.50
2023-04-18T23:43:22.483Z,96569.75
2023-04-18T23:45:49.167Z,96570.38
2023-04-18T23:48:15.812Z,96570.53
2023-04-18T23:50:50.136Z,96565.06
2023-04-18T23:53:19.797Z,96565.22
2023-04-18T23:55:48.350Z,96562.31
2023-04-18T23:58:16.180Z,96559.59
